Time;durP1;ratioP1;P1;durP2;ratioP2;P2;SDS_P1;SDS_P2;PMS_P1;PMS_P2;Temp;Humidity;BMP_temperature;BMP_pressure;BME280_temperature;BME280_humidity;BME280_pressure;Samples;Min_cycle;Max_cycle;Signal;HPM_P1;HPM_P2
2023/09/16 00:02:22;;;;;;;4.65;4.35;;;;;;;16.88;100.00;95791.13;4991020;28;20033;-68
2023/09/16 00:04:48;;;;;;;7.40;4.18;;;;;;;16.88;100.00;95789.25;4987701;28;20031;-68
2023/09/16 00:07:15;;;;;;;4.93;4.13;;;;;;;16.83;100.00;95796.16;4990356;28;20052;-68
2023/09/16 00:09:41;;;;;;;5.30;3.65;;;;;;;16.83;100.00;95791.63;4984914;28;20029;-68
2023/09/16 00:12:07;;;;;;;5.82;4.00;;;;;;;16.87;100.00;95784.13;4992785;28;20030;-67
2023/09/16 00:14:32;;;;;;;11.18;4.53;;;;;;;16.87;100.00;95781.47;4983850;28;20046;-67
2023/09/16 00:17:00;;;;;;;8.38;3.95;;;;;;;16.88;100.00;95783.13;4980480;28;20031;-68
2023/09/16 00:19:26;;;;;;;6.97;4.18;;;;;;;16.88;100.00;95781.28;4990688;28;20501;-67
2023/09/16 00:21:52;;;;;;;4.60;4.18;;;;;;;16.87;100.00;95779.63;4985150;28;20049;-67
2023/09/16 00:24:18;;;;;;;4.47;4.18;;;;;;;16.90;100.00;95781.94;4986960;28;20030;-67
2023/09/16 00:26:44;;;;;;;5.03;4.13;;;;;;;16.93;100.00;95770.13;4994390;28;20037;-68
2023/09/16 00:29:09;;;;;;;5.13;4.53;;;;;;;16.96;100.00;95780.41;4989194;28;20026;-67
2023/09/16 00:31:36;;;;;;;4.85;4.45;;;;;;;16.98;100.00;95777.56;4992570;28;20030;-68
2023/09/16 00:34:02;;;;;;;4.80;4.35;;;;;;;17.00;100.00;95786.22;4983383;28;20487;-67
2023/09/16 00:36:28;;;;;;;4.20;3.90;;;;;;;17.03;100.00;95780.53;4991793;28;20612;-67
2023/09/16 00:38:53;;;;;;;4.57;4.18;;;;;;;17.08;100.00;95777.34;4991677;28;20081;-67
2023/09/16 00:41:19;;;;;;;4.05;3.70;;;;;;;17.05;100.00;95773.19;4991763;28;20394;-68
2023/09/16 00:43:44;;;;;;;5.70;4.25;;;;;;;17.06;100.00;95769.53;4991394;28;20040;-68
2023/09/16 00:46:10;;;;;;;4.43;4.03;;;;;;;17.13;100.00;95769.66;4982565;28;20030;-67
2023/09/16 00:48:35;;;;;;;5.25;4.35;;;;;;;17.11;100.00;95767.16;4987765;28;20035;-67
2023/09/16 00:51:01;;;;;;;4.63;4.22;;;;;;;17.08;100.00;95766.72;4977444;28;20034;-67
2023/09/16 00:53:27;;;;;;;4.18;3.92;;;;;;;17.04;100.00;95760.91;4984973;28;20022;-68
2023/09/16 00:55:53;;;;;;;4.28;3.88;;;;;;;17.04;100.00;95763.56;4983553;28;20038;-67
2023/09/16 00:58:18;;;;;;;4.20;3.88;;;;;;;16.98;100.00;95773.09;4974919;28;20501;-67
2023/09/16 01:00:46;;;;;;;5.18;4.65;;;;;;;16.95;100.00;95767.28;4987752;28;20552;-67
2023/09/16 01:03:16;;;;;;;4.72;4.15;;;;;;;16.94;100.00;95766.47;4981283;28;20106;-67
2023/09/16 01:05:45;;;;;;;5.38;4.00;;;;;;;16.88;100.00;95768.00;4987436;28;20058;-67
2023/09/16 01:08:12;;;;;;;4.97;4.32;;;;;;;16.86;100.00;95771.84;4976720;28;20023;-67
2023/09/16 01:10:40;;;;;;;6.20;4.40;;;;;;;16.87;100.00;95760.22;4987416;28;20034;-68
2023/09/16 01:13:05;;;;;;;4.03;3.70;;;;;;;16.86;100.00;95762.03;4972930;28;20673;-67
2023/09/16 01:15:36;;;;;;;7.97;4.13;;;;;;;16.81;100.00;95761.75;5002069;28;20038;-68
2023/09/16 01:18:14;;;;;;;7.53;4.25;;;;;;;16.81;100.00;95768.91;4992001;28;20014;-68
2023/09/16 01:20:40;;;;;;;4.85;4.13;;;;;;;16.82;100.00;95760.75;4989347;28;20022;-67
2023/09/16 01:23:07;;;;;;;4.75;4.35;;;;;;;16.85;100.00;95763.03;4991250;28;20028;-67
2023/09/16 01:25:33;;;;;;;4.25;3.95;;;;;;;16.85;100.00;95760.38;4978551;28;20036;-67
2023/09/16 01:27:58;;;;;;;4.47;4.15;;;;;;;16.87;100.00;95761.03;4988207;28;20546;-67
2023/09/16 01:30:32;;;;;;;4.70;4.32;;;;;;;16.89;100.00;95748.38;4976772;28;20022;-67
2023/09/16 01:33:16;;;;;;;4.40;4.00;;;;;;;16.98;100.00;95746.50;4989735;28;20091;-67
2023/09/16 01:35:43;;;;;;;4.22;3.85;;;;;;;17.00;100.00;95746.31;4982950;28;20031;-67
2023/09/16 01:38:14;;;;;;;4.40;4.03;;;;;;;17.01;100.00;95740.00;4972286;28;20027;-67
2023/09/16 01:40:43;;;;;;;4.30;3.90;;;;;;;16.95;100.00;95736.19;4971063;28;20509;-67
2023/09/16 01:43:10;;;;;;;5.15;3.60;;;;;;;16.91;100.00;95734.91;4977733;28;20030;-67
2023/09/16 01:45:43;;;;;;;5.70;3.95;;;;;;;16.84;100.00;95739.31;4983516;28;20129;-68
2023/09/16 01:48:08;;;;;;;8.38;4.30;;;;;;;16.75;100.00;95742.03;4990778;28;20044;-67
2023/09/16 01:50:35;;;;;;;5.25;4.05;;;;;;;16.67;100.00;95746.56;4981334;28;20041;-67
2023/09/16 01:53:01;;;;;;;5.07;3.88;;;;;;;16.64;100.00;95744.28;4970634;28;20026;-68
2023/09/16 01:55:27;;;;;;;6.22;4.18;;;;;;;16.67;100.00;95743.91;4979268;28;20031;-67
2023/09/16 01:57:52;;;;;;;4.50;4.10;;;;;;;16.70;100.00;95743.59;4990845;28;20045;-68
2023/09/16 02:00:18;;;;;;;3.60;3.30;;;;;;;16.70;100.00;95747.06;4984099;28;20022;-67
2023/09/16 02:02:43;;;;;;;4.30;3.90;;;;;;;16.75;100.00;95746.53;4988316;28;20035;-67
2023/09/16 02:05:10;;;;;;;5.22;4.55;;;;;;;16.80;100.00;95740.66;4982079;28;20014;-67
2023/09/16 02:07:36;;;;;;;4.32;3.92;;;;;;;16.82;100.00;95733.34;4988757;28;20037;-68
2023/09/16 02:10:03;;;;;;;11.77;4.15;;;;;;;16.81;100.00;95740.47;4982645;28;20022;-67
2023/09/16 02:12:28;;;;;;;4.45;4.03;;;;;;;16.78;100.00;95742.66;4982241;28;20109;-67
2023/09/16 02:14:54;;;;;;;5.65;3.55;;;;;;;16.76;100.00;95734.88;4991171;28;20065;-67
2023/09/16 02:17:19;;;;;;;5.07;4.30;;;;;;;16.80;100.00;95738.00;4983785;28;20018;-67
2023/09/16 02:19:44;;;;;;;4.15;3.83;;;;;;;16.83;100.00;95722.50;4991166;28;20053;-67
2023/09/16 02:22:10;;;;;;;4.43;3.60;;;;;;;16.94;100.00;95718.59;4987903;28;20029;-68
2023/09/16 02:24:35;;;;;;;9.23;4.35;;;;;;;16.97;100.00;95707.59;4987254;28;20041;-67
2023/09/16 02:27:01;;;;;;;4.55;3.78;;;;;;;16.87;100.00;95707.03;4993657;28;20018;-68
2023/09/16 02:29:26;;;;;;;4.28;3.95;;;;;;;16.76;100.00;95708.31;4978773;28;20125;-68
2023/09/16 02:31:51;;;;;;;4.30;3.90;;;;;;;16.72;100.00;95704.34;4982443;28;20034;-67
2023/09/16 02:34:17;;;;;;;4.35;4.05;;;;;;;16.72;100.00;95704.34;4987392;28;20026;-67
2023/09/16 02:36:42;;;;;;;6.38;3.90;;;;;;;16.69;100.00;95696.72;4992983;28;20026;-66
2023/09/16 02:39:08;;;;;;;6.45;4.07;;;;;;;16.61;100.00;95703.75;4993894;28;20022;-67
2023/09/16 02:41:34;;;;;;;5.85;3.85;;;;;;;16.61;100.00;95693.13;4979193;28;20018;-67
2023/09/16 02:43:59;;;;;;;4.80;4.07;;;;;;;16.61;100.00;95687.00;4977637;28;20030;-67
2023/09/16 02:46:24;;;;;;;3.88;3.58;;;;;;;16.57;100.00;95691.84;4993266;28;20494;-67
2023/09/16 02:48:50;;;;;;;4.32;3.72;;;;;;;16.55;100.00;95691.22;4982551;28;20022;-66
2023/09/16 02:51:15;;;;;;;5.57;3.80;;;;;;;16.44;100.00;95688.97;4989823;28;20612;-67
2023/09/16 02:53:41;;;;;;;5.30;4.10;;;;;;;16.37;100.00;95683.56;4999219;28;20375;-67
2023/09/16 02:56:08;;;;;;;4.70;3.72;;;;;;;16.32;100.00;95683.25;4993199;28;20030;-67
2023/09/16 02:58:34;;;;;;;8.65;3.88;;;;;;;16.26;100.00;95684.81;4988635;28;20031;-67
2023/09/16 03:00:59;;;;;;;6.95;3.70;;;;;;;16.21;100.00;95679.19;4990185;28;20034;-67
2023/09/16 03:03:24;;;;;;;4.85;4.18;;;;;;;16.14;100.00;95671.13;4991381;28;20109;-67
2023/09/16 03:05:50;;;;;;;4.35;3.90;;;;;;;16.12;100.00;95666.97;4989492;28;20036;-67
2023/09/16 03:08:15;;;;;;;4.85;3.67;;;;;;;16.09;100.00;95665.50;4993863;28;20097;-67
2023/09/16 03:10:41;;;;;;;4.30;3.95;;;;;;;16.04;100.00;95650.09;4983235;28;20572;-67
2023/09/16 03:13:06;;;;;;;4.25;3.85;;;;;;;15.98;100.00;95653.44;4985364;28;20483;-67
2023/09/16 03:15:35;;;;;;;4.57;4.18;;;;;;;15.94;100.00;95665.44;4992806;28;20384;-67
2023/09/16 03:18:00;;;;;;;4.43;4.03;;;;;;;15.91;100.00;95671.09;4985654;28;20076;-67
2023/09/16 03:20:25;;;;;;;3.97;3.67;;;;;;;15.83;100.00;95674.59;4982742;28;20029;-67
2023/09/16 03:22:51;;;;;;;5.32;4.13;;;;;;;15.75;100.00;95662.19;4977790;28;20118;-66
2023/09/16 03:25:16;;;;;;;5.43;4.22;;;;;;;15.74;100.00;95654.41;4973374;28;20029;-66
2023/09/16 03:27:42;;;;;;;4.20;3.63;;;;;;;15.69;100.00;95657.59;4986966;28;20054;-67
2023/09/16 03:30:08;;;;;;;9.07;3.90;;;;;;;15.68;100.00;95663.91;4981353;28;20037;-67
2023/09/16 03:32:33;;;;;;;5.53;3.80;;;;;;;15.71;100.00;95654.78;5001889;28;20080;-67
2023/09/16 03:34:59;;;;;;;5.85;4.45;;;;;;;15.65;100.00;95656.28;4993372;28;20038;-67
2023/09/16 03:37:24;;;;;;;5.47;3.90;;;;;;;15.68;100.00;95652.44;4993256;28;20117;-67
2023/09/16 03:39:50;;;;;;;6.38;4.18;;;;;;;15.71;100.00;95652.13;4980398;28;20113;-66
2023/09/16 03:42:15;;;;;;;4.05;3.28;;;;;;;15.79;100.00;95643.25;4984917;28;20109;-67
2023/09/16 03:44:40;;;;;;;4.88;4.00;;;;;;;15.66;100.00;95642.03;4985034;28;20133;-67
2023/09/16 03:47:07;;;;;;;4.18;3.90;;;;;;;15.64;100.00;95644.03;4979325;28;20029;-66
2023/09/16 03:49:33;;;;;;;4.57;4.18;;;;;;;15.68;100.00;95642.69;4993535;28;20030;-66
2023/09/16 03:51:58;;;;;;;4.55;3.92;;;;;;;15.68;100.00;95629.41;4991062;28;20041;-67
2023/09/16 03:54:24;;;;;;;6.30;3.88;;;;;;;15.66;100.00;95625.25;4990395;28;20030;-67
2023/09/16 03:56:49;;;;;;;5.40;4.32;;;;;;;15.61;100.00;95634.56;4987276;28;20026;-66
2023/09/16 03:59:14;;;;;;;4.97;3.85;;;;;;;15.56;100.00;95628.97;4990365;28;20110;-67
2023/09/16 04:01:40;;;;;;;4.47;4.07;;;;;;;15.52;100.00;95626.84;4988102;28;20041;-67
2023/09/16 04:04:05;;;;;;;8.23;4.05;;;;;;;15.52;100.00;95642.75;4989601;28;20032;-66
2023/09/16 04:06:31;;;;;;;8.05;4.57;;;;;;;15.69;100.00;95630.22;4990657;28;20403;-66
2023/09/16 04:08:56;;;;;;;4.68;4.15;;;;;;;15.64;100.00;95620.16;4992525;28;20081;-67
2023/09/16 04:11:22;;;;;;;4.78;3.80;;;;;;;15.60;100.00;95616.19;4983400;28;20030;-67
2023/09/16 04:13:47;;;;;;;4.00;3.72;;;;;;;15.59;100.00;95606.59;4974162;28;20038;-67
2023/09/16 04:16:13;;;;;;;5.00;4.28;;;;;;;15.58;100.00;95611.06;4996298;28;20114;-67
2023/09/16 04:18:38;;;;;;;5.05;4.50;;;;;;;15.59;100.00;95607.41;4987557;28;20053;-67
2023/09/16 04:21:04;;;;;;;9.40;4.55;;;;;;;15.61;100.00;95612.53;4985245;28;20023;-67
2023/09/16 04:23:29;;;;;;;4.55;4.15;;;;;;;15.71;100.00;95620.28;4975618;28;20056;-66
2023/09/16 04:25:56;;;;;;;8.07;3.97;;;;;;;15.65;100.00;95624.44;4982460;28;20163;-66
2023/09/16 04:28:22;;;;;;;4.38;3.97;;;;;;;15.64;100.00;95632.56;4992675;28;20032;-67
2023/09/16 04:30:49;;;;;;;7.82;4.28;;;;;;;15.67;100.00;95637.53;4976102;28;20383;-67
2023/09/16 04:33:15;;;;;;;4.75;4.30;;;;;;;15.68;100.00;95650.63;4978588;28;20061;-67
2023/09/16 04:35:45;;;;;;;8.60;4.57;;;;;;;15.98;100.00;95655.28;4979588;28;20068;-67
2023/09/16 04:38:11;;;;;;;5.05;3.90;;;;;;;15.83;100.00;95642.75;4989387;28;20427;-67
2023/09/16 04:40:37;;;;;;;4.30;4.00;;;;;;;15.67;100.00;95633.06;4987926;28;20133;-67
2023/09/16 04:43:03;;;;;;;5.63;3.95;;;;;;;15.67;100.00;95629.56;4985507;28;20522;-67
2023/09/16 04:45:29;;;;;;;4.63;4.25;;;;;;;15.78;100.00;95641.59;4991495;28;20050;-67
2023/09/16 04:47:57;;;;;;;4.88;4.47;;;;;;;15.97;100.00;95670.38;4990950;28;20042;-66
2023/09/16 04:50:23;;;;;;;5.90;4.95;;;;;;;15.91;100.00;95660.47;4991645;28;20486;-67
2023/09/16 04:52:48;;;;;;;4.72;4.20;;;;;;;15.99;100.00;95649.78;4991717;28;20025;-66
2023/09/16 04:55:14;;;;;;;4.25;4.03;;;;;;;16.00;100.00;95648.78;4990910;28;20029;-67
2023/09/16 04:57:40;;;;;;;6.00;4.57;;;;;;;16.03;100.00;95650.28;4991579;28;20038;-66
2023/09/16 05:00:07;;;;;;;6.25;5.15;;;;;;;16.04;100.00;95658.06;4991554;28;20119;-67
2023/09/16 05:02:33;;;;;;;4.57;4.18;;;;;;;16.00;100.00;95654.09;4991950;28;20026;-67
2023/09/16 05:05:00;;;;;;;4.68;4.20;;;;;;;16.02;100.00;95662.72;4989107;28;20046;-66
2023/09/16 05:07:26;;;;;;;4.20;3.90;;;;;;;16.02;100.00;95667.22;4991615;28;20526;-66
2023/09/16 05:09:51;;;;;;;5.78;4.20;;;;;;;16.01;100.00;95669.03;4990605;28;20175;-68
2023/09/16 05:12:17;;;;;;;4.40;4.10;;;;;;;16.00;100.00;95656.75;4990653;28;20022;-67
2023/09/16 05:14:42;;;;;;;5.70;4.30;;;;;;;15.99;100.00;95651.63;4992060;28;20099;-66
2023/09/16 05:17:07;;;;;;;6.65;4.50;;;;;;;15.98;100.00;95661.41;4980225;28;20049;-66
2023/09/16 05:19:33;;;;;;;4.78;4.18;;;;;;;15.93;100.00;95666.44;4981935;28;20041;-66
2023/09/16 05:21:58;;;;;;;4.95;4.10;;;;;;;15.90;100.00;95669.44;4978071;28;20110;-66
2023/09/16 05:24:24;;;;;;;4.53;4.28;;;;;;;15.91;100.00;95673.75;4976173;28;20114;-67
2023/09/16 05:26:49;;;;;;;4.22;3.83;;;;;;;15.89;100.00;95665.94;4988666;28;20046;-66
2023/09/16 05:29:15;;;;;;;4.55;4.25;;;;;;;15.86;100.00;95668.13;4988173;28;20034;-66
2023/09/16 05:31:40;;;;;;;4.57;4.20;;;;;;;15.84;100.00;95670.94;4981645;28;20364;-67
2023/09/16 05:34:05;;;;;;;4.63;4.10;;;;;;;15.85;100.00;95671.78;4978979;28;20095;-66
2023/09/16 05:36:32;;;;;;;4.30;4.00;;;;;;;15.85;100.00;95677.09;4991498;28;20061;-66
2023/09/16 05:38:58;;;;;;;4.30;3.90;;;;;;;15.83;100.00;95679.09;4991206;28;20105;-66
2023/09/16 05:41:23;;;;;;;4.85;4.28;;;;;;;15.87;100.00;95696.31;4988007;28;20069;-66
2023/09/16 05:43:48;;;;;;;5.40;4.03;;;;;;;15.92;100.00;95693.19;4982012;28;20026;-66
2023/09/16 05:46:15;;;;;;;5.32;4.15;;;;;;;15.98;100.00;95693.28;4989167;28;20065;-66
2023/09/16 05:48:41;;;;;;;4.30;4.00;;;;;;;16.04;100.00;95697.06;5002164;28;20113;-67
2023/09/16 05:51:08;;;;;;;4.53;4.13;;;;;;;16.09;100.00;95688.56;4984244;28;20072;-66
2023/09/16 05:53:33;;;;;;;4.78;4.43;;;;;;;16.05;100.00;95688.09;4977976;28;20473;-66
2023/09/16 05:56:02;;;;;;;6.40;4.22;;;;;;;16.05;100.00;95701.38;4988333;28;20034;-66
2023/09/16 05:58:27;;;;;;;6.28;4.03;;;;;;;16.05;100.00;95704.03;4987101;28;20022;-66
2023/09/16 06:00:57;;;;;;;5.10;4.38;;;;;;;16.08;100.00;95702.84;4984255;28;20076;-66
2023/09/16 06:03:23;;;;;;;7.55;4.57;;;;;;;16.10;100.00;95698.19;4990407;28;20022;-66
2023/09/16 06:05:48;;;;;;;4.60;4.25;;;;;;;16.12;100.00;95696.19;4987909;28;20372;-66
2023/09/16 06:08:14;;;;;;;4.55;4.20;;;;;;;16.17;100.00;95702.63;4988051;28;20015;-66
2023/09/16 06:10:40;;;;;;;4.40;4.10;;;;;;;16.17;100.00;95694.66;4992148;28;20025;-66
2023/09/16 06:13:05;;;;;;;4.35;3.95;;;;;;;16.21;100.00;95694.31;4989445;28;20090;-66
2023/09/16 06:15:31;;;;;;;4.55;3.95;;;;;;;16.22;100.00;95696.75;4988085;28;20095;-66
2023/09/16 06:17:56;;;;;;;7.35;4.22;;;;;;;16.22;100.00;95693.31;4992572;28;20026;-66
2023/09/16 06:20:22;;;;;;;5.45;3.92;;;;;;;16.26;100.00;95698.09;4990327;28;20518;-66
2023/09/16 06:22:47;;;;;;;4.80;4.40;;;;;;;16.37;100.00;95690.69;4993157;28;20157;-66
2023/09/16 06:25:13;;;;;;;4.35;3.95;;;;;;;16.41;100.00;95694.63;4991015;28;20691;-66
2023/09/16 06:27:38;;;;;;;6.18;3.83;;;;;;;16.42;100.00;95686.50;4990867;28;20483;-66
2023/09/16 06:30:04;;;;;;;3.90;3.60;;;;;;;16.46;100.00;95697.56;4991689;28;20019;-66
2023/09/16 06:32:29;;;;;;;3.97;3.67;;;;;;;16.48;100.00;95692.94;4990350;28;20023;-66
2023/09/16 06:34:55;;;;;;;4.50;4.03;;;;;;;16.47;100.00;95696.59;4989778;28;20754;-66
2023/09/16 06:37:20;;;;;;;4.90;3.97;;;;;;;16.51;100.00;95697.06;4989716;28;20535;-66
2023/09/16 06:39:47;;;;;;;6.70;4.40;;;;;;;16.56;100.00;95697.34;4962536;28;20027;-66
2023/09/16 06:42:13;;;;;;;5.10;4.10;;;;;;;16.54;100.00;95708.16;4988390;28;20030;-66
2023/09/16 06:44:38;;;;;;;7.32;5.22;;;;;;;16.60;100.00;95710.09;4995412;28;20118;-66
2023/09/16 06:47:04;;;;;;;7.90;3.60;;;;;;;16.67;100.00;95709.38;4992033;28;20049;-66
2023/09/16 06:49:29;;;;;;;4.82;4.28;;;;;;;16.65;100.00;95703.41;4987190;28;20065;-66
2023/09/16 06:51:54;;;;;;;9.98;5.05;;;;;;;16.70;100.00;95695.75;4995740;28;20658;-66
2023/09/16 06:54:20;;;;;;;4.22;3.90;;;;;;;16.83;100.00;95690.59;4993238;28;20490;-66
2023/09/16 06:56:45;;;;;;;4.20;3.80;;;;;;;16.85;100.00;95699.22;4973156;28;20027;-66
2023/09/16 06:59:11;;;;;;;5.53;3.60;;;;;;;16.96;100.00;95695.31;4992796;28;20107;-67
2023/09/16 07:01:36;;;;;;;4.07;3.78;;;;;;;17.00;100.00;95703.78;4992920;28;20019;-66
2023/09/16 07:04:02;;;;;;;5.65;3.60;;;;;;;17.22;100.00;95704.69;4991974;28;20105;-66
2023/09/16 07:06:27;;;;;;;4.93;3.70;;;;;;;17.50;100.00;95714.72;4991436;28;20604;-68
2023/09/16 07:08:53;;;;;;;3.35;3.15;;;;;;;17.85;100.00;95722.91;4988251;28;20109;-67
2023/09/16 07:11:18;;;;;;;4.80;3.25;;;;;;;18.27;100.00;95728.53;4988743;28;20034;-67
2023/09/16 07:13:44;;;;;;;3.67;3.25;;;;;;;18.76;100.00;95748.22;4992755;28;20027;-67
2023/09/16 07:16:13;;;;;;;3.78;3.20;;;;;;;19.11;100.00;95776.03;4999749;28;20447;-67
2023/09/16 07:18:39;;;;;;;7.20;3.10;;;;;;;19.39;100.00;95796.56;4991604;28;19918;-68
2023/09/16 07:21:04;;;;;;;5.13;2.70;;;;;;;19.58;100.00;95811.09;4991008;28;20030;-67
2023/09/16 07:23:30;;;;;;;4.28;2.80;;;;;;;19.73;100.00;95817.09;5015867;28;20095;-67
2023/09/16 07:25:57;;;;;;;3.38;3.03;;;;;;;19.73;100.00;95846.50;4987223;28;20395;-67
2023/09/16 07:28:23;;;;;;;7.05;3.08;;;;;;;19.54;100.00;95863.19;4984491;28;20033;-67
2023/09/16 07:30:49;;;;;;;6.55;3.00;;;;;;;19.37;100.00;95868.84;4987077;28;20030;-67
2023/09/16 07:33:14;;;;;;;3.25;2.90;;;;;;;19.27;100.00;95884.34;4993276;28;20041;-67
2023/09/16 07:35:40;;;;;;;4.32;3.05;;;;;;;19.21;100.00;95893.94;4991991;28;20682;-67
2023/09/16 07:38:05;;;;;;;5.78;3.10;;;;;;;19.17;100.00;95892.69;4975886;28;20026;-67
2023/09/16 07:40:32;;;;;;;6.88;3.08;;;;;;;19.31;100.00;95897.13;4981114;28;20034;-69
2023/09/16 07:42:58;;;;;;;3.78;2.92;;;;;;;19.37;100.00;95898.22;4980305;28;20041;-67
2023/09/16 07:45:23;;;;;;;3.08;2.78;;;;;;;19.42;100.00;95903.78;4992884;28;20047;-67
2023/09/16 07:47:49;;;;;;;4.80;3.13;;;;;;;19.42;100.00;95909.13;4994015;28;20073;-67
2023/09/16 07:50:14;;;;;;;3.25;2.80;;;;;;;19.35;100.00;95910.91;4973596;28;20026;-66
2023/09/16 07:52:40;;;;;;;3.47;2.95;;;;;;;19.28;100.00;95924.19;4974589;28;20050;-67
2023/09/16 07:55:07;;;;;;;3.83;3.38;;;;;;;19.28;100.00;95928.69;4974718;28;20058;-66
2023/09/16 07:57:33;;;;;;;5.75;3.33;;;;;;;19.29;100.00;95941.88;4975174;28;20027;-66
2023/09/16 07:59:58;;;;;;;4.93;3.38;;;;;;;19.27;100.00;95948.41;4985698;28;20502;-66
2023/09/16 08:02:24;;;;;;;3.67;2.80;;;;;;;19.36;100.00;95946.44;4987413;28;20026;-80
2023/09/16 08:04:49;;;;;;;3.72;2.63;;;;;;;19.57;100.00;95969.66;4988320;28;20034;-66
2023/09/16 08:07:15;;;;;;;2.47;2.20;;;;;;;19.66;100.00;95955.13;4981253;28;20027;-66
2023/09/16 08:09:40;;;;;;;4.95;2.55;;;;;;;19.89;100.00;95964.75;4982715;28;20037;-66
2023/09/16 08:12:06;;;;;;;3.30;2.67;;;;;;;20.06;100.00;95957.28;4982979;28;20417;-65
2023/09/16 08:14:31;;;;;;;4.95;2.40;;;;;;;20.11;100.00;95930.78;4996021;28;20034;-66
2023/09/16 08:16:58;;;;;;;6.38;2.90;;;;;;;19.97;100.00;95950.47;4985310;28;20033;-65
2023/09/16 08:19:23;;;;;;;6.97;2.67;;;;;;;20.14;100.00;95964.34;4985070;28;20031;-66
2023/09/16 08:21:49;;;;;;;8.30;2.67;;;;;;;20.13;100.00;95973.38;4988122;28;20113;-65
2023/09/16 08:24:15;;;;;;;9.88;2.42;;;;;;;20.26;100.00;95981.50;4991795;28;20078;-66
2023/09/16 08:26:40;;;;;;;8.57;3.00;;;;;;;20.08;100.00;96007.88;4997411;28;20030;-66
2023/09/16 08:29:05;;;;;;;8.38;2.95;;;;;;;19.85;100.00;96006.22;4979319;28;20038;-66
2023/09/16 08:31:31;;;;;;;6.63;2.67;;;;;;;19.55;100.00;96001.88;4992058;28;20116;-65
2023/09/16 08:34:01;;;;;;;4.70;2.55;;;;;;;19.40;100.00;96015.28;4989825;28;20027;-66
2023/09/16 08:36:27;;;;;;;8.15;2.40;;;;;;;19.17;100.00;96016.28;4978695;28;20478;-65
2023/09/16 08:38:52;;;;;;;6.68;2.80;;;;;;;19.00;100.00;96018.31;4991199;28;20041;-66
2023/09/16 08:41:23;;;;;;;5.65;2.88;;;;;;;18.85;100.00;96015.63;5000215;28;20026;-66
2023/09/16 08:43:51;;;;;;;4.68;2.47;;;;;;;18.78;100.00;96021.91;5029775;28;20100;-66
2023/09/16 08:46:20;;;;;;;3.45;2.50;;;;;;;18.69;100.00;96015.88;4981633;28;20090;-66
2023/09/16 08:48:49;;;;;;;15.57;2.70;;;;;;;18.70;100.00;96025.53;4986475;28;20512;-67
2023/09/16 08:51:19;;;;;;;4.72;2.70;;;;;;;18.80;100.00;96042.06;4985567;28;20030;-66
2023/09/16 08:53:46;;;;;;;5.80;2.72;;;;;;;18.81;100.00;96041.03;4994467;28;20044;-65
2023/09/16 08:56:13;;;;;;;2.72;2.38;;;;;;;18.78;100.00;96027.22;4990205;28;20037;-65
2023/09/16 08:58:39;;;;;;;6.03;2.78;;;;;;;18.71;100.00;96029.84;4985675;28;20034;-65
2023/09/16 09:01:05;;;;;;;8.25;2.97;;;;;;;18.58;100.00;96017.97;4986993;28;20034;-66
2023/09/16 09:03:32;;;;;;;6.38;2.65;;;;;;;18.43;100.00;96014.47;4989701;28;20059;-66
2023/09/16 09:05:58;;;;;;;7.05;2.70;;;;;;;18.32;100.00;95999.75;4991409;28;20054;-66
2023/09/16 09:08:23;;;;;;;6.15;2.90;;;;;;;18.32;100.00;95995.28;4991290;28;20027;-66
2023/09/16 09:10:50;;;;;;;4.60;2.42;;;;;;;18.53;100.00;95996.38;4990126;28;20061;-65
2023/09/16 09:13:16;;;;;;;6.13;2.97;;;;;;;18.64;100.00;96010.25;4988777;28;20113;-65
2023/09/16 09:15:43;;;;;;;7.20;2.95;;;;;;;18.54;100.00;96006.03;4984487;28;20057;-66
2023/09/16 09:18:11;;;;;;;6.28;2.75;;;;;;;18.45;100.00;96007.94;4985188;28;20387;-65
2023/09/16 09:20:37;;;;;;;7.80;2.97;;;;;;;18.49;100.00;96016.41;4972504;28;20488;-67
2023/09/16 09:23:03;;;;;;;7.07;3.20;;;;;;;18.45;100.00;96015.94;4980173;28;20068;-67
2023/09/16 09:25:31;;;;;;;3.40;2.58;;;;;;;18.49;100.00;96020.91;4986435;28;20812;-66
2023/09/16 09:27:59;;;;;;;4.38;2.58;;;;;;;18.36;100.00;96014.41;4988047;28;20019;-67
2023/09/16 09:30:29;;;;;;;4.50;2.50;;;;;;;18.36;100.00;96002.91;4985937;28;20037;-66
2023/09/16 09:32:56;;;;;;;9.27;3.88;;;;;;;18.45;100.00;96005.28;4978974;28;20022;-66
2023/09/16 09:35:25;;;;;;;3.90;2.83;;;;;;;18.56;100.00;96001.34;4990533;28;20022;-67
2023/09/16 09:37:51;;;;;;;7.07;6.10;;;;;;;18.69;100.00;95987.34;4991719;28;20145;-66
2023/09/16 09:40:18;;;;;;;12.18;10.88;;;;;;;18.82;100.00;95992.00;4991246;28;20046;-66
2023/09/16 09:42:45;;;;;;;18.45;10.85;;;;;;;18.93;100.00;95998.72;4990032;28;20110;-65
2023/09/16 09:45:11;;;;;;;7.65;4.60;;;;;;;19.03;100.00;95998.44;4990314;28;20054;-65
2023/09/16 09:47:40;;;;;;;17.65;10.63;;;;;;;19.18;100.00;96001.06;4991650;28;20029;-66
2023/09/16 09:50:08;;;;;;;9.48;8.35;;;;;;;19.25;100.00;95998.47;4991284;28;20482;-66
2023/09/16 09:52:37;;;;;;;10.73;5.15;;;;;;;19.43;100.00;96006.03;4992317;28;20069;-66
2023/09/16 09:55:03;;;;;;;7.47;3.30;;;;;;;19.58;100.00;96025.50;4973238;28;20023;-66
2023/09/16 09:57:28;;;;;;;7.93;3.53;;;;;;;19.69;100.00;96024.16;4984467;28;20037;-67
2023/09/16 09:59:57;;;;;;;5.30;2.63;;;;;;;19.74;100.00;96029.75;4991002;28;20034;-66
2023/09/16 10:02:27;;;;;;;7.45;3.00;;;;;;;19.79;100.00;96031.88;4985692;28;20095;-66
2023/09/16 10:04:59;;;;;;;5.00;2.95;;;;;;;19.84;100.00;96037.44;4977163;28;20083;-67
2023/09/16 10:07:26;;;;;;;10.05;3.67;;;;;;;19.87;100.00;96049.59;4990473;28;20501;-66
2023/09/16 10:09:52;;;;;;;7.85;2.95;;;;;;;19.93;100.00;96050.72;4989394;28;20412;-67
2023/09/16 10:12:19;;;;;;;5.32;2.85;;;;;;;20.08;100.00;96045.28;4990571;28;20062;-66
2023/09/16 10:14:45;;;;;;;6.50;2.70;;;;;;;20.32;100.00;96054.72;4991247;28;20087;-66
2023/09/16 10:17:11;;;;;;;3.22;2.53;;;;;;;20.60;100.00;96049.34;4988988;28;20105;-67
2023/09/16 10:19:37;;;;;;;4.45;2.83;;;;;;;20.82;100.00;96011.03;4988091;28;20027;-67
2023/09/16 10:22:02;;;;;;;6.60;2.67;;;;;;;20.57;100.00;96020.34;4989393;28;20518;-68
2023/09/16 10:24:28;;;;;;;5.63;2.80;;;;;;;20.25;100.00;96038.66;4987420;28;20033;-67
2023/09/16 10:26:57;;;;;;;4.75;2.70;;;;;;;20.22;100.00;96047.03;4991458;28;20035;-67
2023/09/16 10:29:24;;;;;;;4.15;2.80;;;;;;;20.02;100.00;96045.06;4977579;28;20055;-67
2023/09/16 10:31:51;;;;;;;9.45;2.95;;;;;;;19.88;100.00;96045.91;4981990;28;20105;-66
2023/09/16 10:34:17;;;;;;;5.68;2.70;;;;;;;19.74;100.00;96045.78;4990468;28;20097;-66
2023/09/16 10:36:42;;;;;;;9.18;3.10;;;;;;;19.67;100.00;96031.56;4989576;28;20057;-66
2023/09/16 10:39:09;;;;;;;8.02;3.00;;;;;;;19.64;100.00;96047.97;4985677;28;20018;-66
2023/09/16 10:41:36;;;;;;;4.68;2.40;;;;;;;19.73;100.00;96046.00;4973285;28;20062;-67
2023/09/16 10:44:03;;;;;;;6.72;2.78;;;;;;;20.22;100.00;96020.31;4978853;28;20525;-66
2023/09/16 10:46:29;;;;;;;9.50;2.58;;;;;;;20.20;100.00;96033.03;4990167;28;20079;-66
2023/09/16 10:48:54;;;;;;;7.00;2.40;;;;;;;20.26;100.00;96040.31;4989445;28;20026;-66
2023/09/16 10:51:26;;;;;;;7.10;2.50;;;;;;;20.25;100.00;96043.16;4990136;28;20034;-67
2023/09/16 10:54:00;;;;;;;6.38;2.38;;;;;;;20.38;100.00;96040.59;4985819;28;20022;-67
2023/09/16 10:56:35;;;;;;;6.45;2.10;;;;;;;20.28;100.00;96043.59;4973945;28;20576;-67
2023/09/16 10:59:09;;;;;;;8.65;2.58;;;;;;;20.32;100.00;96041.34;4993042;28;20038;-67
2023/09/16 11:01:36;;;;;;;5.75;2.05;;;;;;;20.65;100.00;96021.19;4981092;28;20038;-67
2023/09/16 11:04:14;;;;;;;5.22;2.10;;;;;;;20.66;100.00;96028.19;4988321;28;20572;-67
2023/09/16 11:06:40;;;;;;;7.93;2.45;;;;;;;20.69;100.00;96033.16;4979681;28;20087;-67
2023/09/16 11:09:06;;;;;;;9.68;2.60;;;;;;;20.88;100.00;96034.31;4993150;28;20125;-67
2023/09/16 11:11:33;;;;;;;5.38;2.42;;;;;;;21.08;100.00;96031.69;4988090;28;20101;-67
2023/09/16 11:13:59;;;;;;;5.28;2.03;;;;;;;21.23;100.00;96020.03;4991124;28;20427;-67
2023/09/16 11:16:25;;;;;;;2.97;1.90;;;;;;;21.28;100.00;96014.88;4984928;28;20412;-67
2023/09/16 11:18:51;;;;;;;4.20;1.85;;;;;;;21.42;100.00;95997.84;4978201;28;20029;-67
2023/09/16 11:21:18;;;;;;;4.93;1.73;;;;;;;21.56;100.00;95993.31;4994488;28;20128;-68